createdAt,value
2022-08-18T00:01:16.396Z,69.38
2022-08-18T00:03:55.672Z,69.43
2022-08-18T00:06:29.505Z,69.59
2022-08-18T00:08:59.707Z,69.88
2022-08-18T00:11:41.275Z,70.22
2022-08-18T00:14:19.705Z,70.48
2022-08-18T00:16:54.320Z,71.38
2022-08-18T00:19:46.515Z,71.47
2022-08-18T00:22:22.370Z,72.63
2022-08-18T00:24:52.947Z,72.83
2022-08-18T00:27:26.191Z,72.86
2022-08-18T00:29:58.477Z,73.02
2022-08-18T00:32:30.829Z,72.92
2022-08-18T00:34:58.973Z,73.33
2022-08-18T00:37:26.878Z,73.72
2022-08-18T00:39:55.106Z,73.86
2022-08-18T00:42:29.007Z,74.10
2022-08-18T00:45:01.282Z,74.80
2022-08-18T00:47:41.788Z,75.28
2022-08-18T00:50:15.193Z,75.44
2022-08-18T00:52:48.865Z,75.64
2022-08-18T00:55:19.518Z,75.64
2022-08-18T00:57:49.605Z,75.68
2022-08-18T01:00:18.231Z,76.00
2022-08-18T01:02:51.662Z,76.58
2022-08-18T01:05:24.006Z,76.80
2022-08-18T01:07:52.511Z,76.52
2022-08-18T01:10:23.055Z,76.98
2022-08-18T01:12:53.367Z,77.25
2022-08-18T01:15:28.517Z,77.59
2022-08-18T01:18:18.707Z,78.16
2022-08-18T01:21:16.638Z,78.02
2022-08-18T01:23:48.733Z,77.90
2022-08-18T01:26:18.113Z,77.79
2022-08-18T01:28:49.465Z,78.18
2022-08-18T01:31:33.244Z,77.88
2022-08-18T01:34:02.037Z,77.60
2022-08-18T01:36:30.005Z,77.76
2022-08-18T01:38:59.356Z,77.91
2022-08-18T01:41:30.824Z,77.65
2022-08-18T01:44:00.676Z,77.32
2022-08-18T01:46:30.316Z,77.50
2022-08-18T01:49:01.157Z,77.21
2022-08-18T01:51:39.584Z,77.58
2022-08-18T01:54:12.910Z,77.38
2022-08-18T01:56:42.409Z,78.20
2022-08-18T01:59:14.908Z,77.75
2022-08-18T02:01:50.459Z,77.96
2022-08-18T02:04:40.802Z,78.29
2022-08-18T02:07:11.446Z,78.36
2022-08-18T02:09:42.278Z,78.71
2022-08-18T02:12:11.464Z,79.00
2022-08-18T02:14:39.989Z,79.32
2022-08-18T02:17:11.084Z,78.95
2022-08-18T02:19:41.247Z,79.07
2022-08-18T02:22:11.045Z,79.56
2022-08-18T02:24:40.439Z,79.53
2022-08-18T02:27:09.596Z,79.34
2022-08-18T02:29:38.082Z,79.33
2022-08-18T02:32:07.377Z,79.21
2022-08-18T02:34:35.731Z,79.50
2022-08-18T02:37:04.483Z,79.10
2022-08-18T02:39:35.691Z,79.66
2022-08-18T02:42:05.752Z,80.29
2022-08-18T02:44:33.686Z,80.32
2022-08-18T02:47:01.798Z,80.83
2022-08-18T02:49:29.739Z,80.91
2022-08-18T02:51:57.591Z,81.01
2022-08-18T02:54:26.005Z,81.00
2022-08-18T02:56:54.081Z,81.02
2022-08-18T02:59:27.555Z,81.11
2022-08-18T03:01:57.317Z,81.44
2022-08-18T03:04:29.839Z,81.32
2022-08-18T03:07:00.767Z,81.64
2022-08-18T03:09:29.746Z,81.76
2022-08-18T03:11:58.329Z,81.98
2022-08-18T03:14:27.984Z,81.77
2022-08-18T03:16:56.176Z,81.69
2022-08-18T03:19:25.545Z,81.73
2022-08-18T03:21:55.038Z,81.70
2022-08-18T03:24:26.502Z,81.54
2022-08-18T03:26:57.382Z,81.60
2022-08-18T03:29:32.011Z,81.47
2022-08-18T03:32:01.481Z,81.33
2022-08-18T03:34:29.739Z,81.40
2022-08-18T03:36:57.717Z,81.12
2022-08-18T03:39:27.835Z,81.33
2022-08-18T03:42:01.112Z,81.23
2022-08-18T03:44:33.410Z,81.16
2022-08-18T03:47:03.780Z,80.94
2022-08-18T03:49:33.888Z,81.33
2022-08-18T03:52:02.673Z,81.09
2022-08-18T03:54:33.706Z,80.97
2022-08-18T03:57:02.149Z,81.24
2022-08-18T03:59:32.146Z,81.80
2022-08-18T04:02:00.343Z,81.83
2022-08-18T04:04:29.618Z,82.11
2022-08-18T04:07:00.099Z,82.22
2022-08-18T04:09:30.879Z,82.40
2022-08-18T04:12:03.567Z,82.68
2022-08-18T04:14:33.149Z,82.69
2022-08-18T04:17:00.991Z,83.18
2022-08-18T04:19:28.847Z,83.51
2022-08-18T04:21:58.172Z,83.92
2022-08-18T04:24:28.119Z,84.15
2022-08-18T04:26:57.608Z,84.75
2022-08-18T04:29:25.939Z,84.83
2022-08-18T04:31:56.170Z,85.00
2022-08-18T04:34:24.193Z,85.25
2022-08-18T04:36:54.042Z,85.86
2022-08-18T04:39:22.951Z,85.91
2022-08-18T04:41:51.730Z,86.53
2022-08-18T04:44:20.223Z,86.77
2022-08-18T04:46:51.059Z,87.39
2022-08-18T04:49:22.350Z,88.20
2022-08-18T04:52:34.278Z,88.56
2022-08-18T04:54:53.469Z,89.50
2022-08-18T04:57:23.032Z,90.08
2022-08-18T04:59:53.514Z,90.53
2022-08-18T05:02:22.699Z,91.47
2022-08-18T05:04:53.610Z,91.71
2022-08-18T05:07:23.697Z,91.81
2022-08-18T05:09:55.125Z,92.52
2022-08-18T05:12:26.024Z,92.80
2022-08-18T05:14:56.976Z,92.85
2022-08-18T05:17:30.247Z,93.29
2022-08-18T05:20:01.441Z,93.33
2022-08-18T05:22:31.861Z,93.43
2022-08-18T05:25:00.958Z,93.35
2022-08-18T05:27:33.323Z,93.79
2022-08-18T05:30:01.190Z,93.39
2022-08-18T05:32:46.478Z,93.52
2022-08-18T05:35:23.304Z,93.73
2022-08-18T05:38:26.879Z,93.15
2022-08-18T05:41:13.808Z,93.25
2022-08-18T05:43:45.990Z,93.44
2022-08-18T05:46:22.935Z,93.17
2022-08-18T05:48:51.579Z,93.19
2022-08-18T05:51:28.612Z,92.84
2022-08-18T05:54:14.568Z,92.75
2022-08-18T05:56:48.284Z,92.46
2022-08-18T05:59:24.790Z,92.55
2022-08-18T06:01:58.011Z,92.23
2022-08-18T06:04:35.373Z,92.19
2022-08-18T06:07:09.900Z,92.34
2022-08-18T06:09:44.577Z,92.28
2022-08-18T06:12:22.746Z,92.30
2022-08-18T06:14:50.902Z,92.22
2022-08-18T06:17:38.253Z,91.85
2022-08-18T06:20:16.065Z,91.78
2022-08-18T06:22:56.560Z,91.27
2022-08-18T06:25:32.860Z,90.41
2022-08-18T06:28:07.127Z,90.23
2022-08-18T06:30:50.694Z,89.77
2022-08-18T06:33:36.980Z,89.40
2022-08-18T06:36:14.385Z,88.87
2022-08-18T06:39:03.034Z,88.61
2022-08-18T06:41:37.916Z,88.77
2022-08-18T06:44:17.335Z,88.38
2022-08-18T06:46:48.363Z,88.22
2022-08-18T06:49:29.485Z,87.84
2022-08-18T06:51:57.313Z,87.31
2022-08-18T06:54:31.293Z,86.52
2022-08-18T06:57:00.013Z,86.04
2022-08-18T06:59:31.910Z,86.00
2022-08-18T07:02:07.285Z,85.63
2022-08-18T07:04:42.632Z,85.49
2022-08-18T07:07:20.680Z,84.82
2022-08-18T07:09:50.431Z,84.68
2022-08-18T07:12:29.060Z,84.35
2022-08-18T07:15:02.968Z,84.13
2022-08-18T07:17:43.185Z,83.54
2022-08-18T07:20:21.567Z,83.15
2022-08-18T07:22:55.069Z,83.31
2022-08-18T07:25:28.405Z,82.58
2022-08-18T07:27:57.258Z,82.49
2022-08-18T07:30:36.039Z,81.69
2022-08-18T07:33:13.128Z,81.59
2022-08-18T07:35:47.852Z,81.38
2022-08-18T07:41:20.305Z,80.42
2022-08-18T07:43:57.993Z,79.98
2022-08-18T07:46:35.401Z,79.90
2022-08-18T07:49:05.501Z,79.62
2022-08-18T07:51:47.376Z,79.14
2022-08-18T07:54:48.230Z,78.18
2022-08-18T07:57:26.146Z,77.16
2022-08-18T08:00:00.401Z,77.07
2022-08-18T08:02:41.829Z,76.53
2022-08-18T08:05:19.145Z,75.39
2022-08-18T08:07:52.429Z,75.02
2022-08-18T08:10:31.446Z,73.85
2022-08-18T08:13:37.046Z,73.18
2022-08-18T08:16:15.140Z,72.88
2022-08-18T08:18:50.888Z,72.35
2022-08-18T08:21:21.086Z,72.31
2022-08-18T08:23:54.222Z,72.27
2022-08-18T08:26:33.730Z,71.70
2022-08-18T08:29:19.411Z,71.82
2022-08-18T08:31:51.996Z,71.60
2022-08-18T08:34:36.388Z,71.01
2022-08-18T08:37:08.435Z,70.99
2022-08-18T08:39:44.156Z,69.90
2022-08-18T08:42:31.045Z,69.35
2022-08-18T08:45:07.947Z,68.96
2022-08-18T08:47:42.076Z,68.61
2022-08-18T08:50:14.018Z,67.96
2022-08-18T08:52:47.402Z,67.90
2022-08-18T08:55:18.782Z,68.02
2022-08-18T08:57:52.523Z,67.73
2022-08-18T09:00:22.019Z,66.65
2022-08-18T09:03:16.214Z,66.22
2022-08-18T09:06:01.915Z,65.94
2022-08-18T09:08:54.795Z,65.42
2022-08-18T09:12:01.370Z,63.51
2022-08-18T09:14:52.245Z,64.46
2022-08-18T09:17:43.138Z,64.23
2022-08-18T09:20:38.167Z,64.30
2022-08-18T09:23:10.186Z,63.78
2022-08-18T09:25:49.104Z,63.01
2022-08-18T09:28:21.567Z,62.59
2022-08-18T09:31:12.102Z,62.95
2022-08-18T09:34:02.578Z,62.58
2022-08-18T09:36:41.924Z,62.25
2022-08-18T09:39:47.989Z,62.34
2022-08-18T09:42:33.962Z,60.85
2022-08-18T09:45:54.651Z,59.67
2022-08-18T09:48:31.641Z,59.39
2022-08-18T09:51:32.318Z,59.29
2022-08-18T09:54:14.319Z,59.75
2022-08-18T09:57:08.612Z,58.80
2022-08-18T10:00:24.367Z,58.99
2022-08-18T10:03:13.816Z,57.18
2022-08-18T10:05:57.466Z,57.49
2022-08-18T10:08:50.258Z,57.33
2022-08-18T10:11:28.480Z,57.25
2022-08-18T10:14:15.770Z,57.84
2022-08-18T10:17:21.304Z,57.11
2022-08-18T10:19:55.963Z,57.62
2022-08-18T10:22:44.307Z,57.40
2022-08-18T10:25:22.631Z,56.44
2022-08-18T10:27:55.377Z,56.16
2022-08-18T10:30:56.754Z,54.97
2022-08-18T10:34:01.775Z,53.71
2022-08-18T10:36:46.854Z,54.25
2022-08-18T10:39:18.358Z,54.55
2022-08-18T10:41:58.344Z,54.57
2022-08-18T10:44:30.862Z,54.65
2022-08-18T10:47:01.448Z,53.64
2022-08-18T10:49:33.219Z,53.82
2022-08-18T10:52:45.221Z,53.74
2022-08-18T10:55:48.060Z,53.72
2022-08-18T10:58:38.666Z,53.48
2022-08-18T11:01:36.842Z,52.71
2022-08-18T11:07:07.862Z,52.47
2022-08-18T11:09:41.597Z,52.53
2022-08-18T11:12:12.962Z,52.81
2022-08-18T11:18:13.137Z,53.29
2022-08-18T11:20:43.229Z,53.17
2022-08-18T11:23:14.900Z,52.82
2022-08-18T11:25:43.112Z,53.15
2022-08-18T11:28:18.254Z,53.47
2022-08-18T11:30:51.601Z,53.81
2022-08-18T11:33:23.051Z,54.16
2022-08-18T11:35:57.812Z,54.15
2022-08-18T11:38:29.591Z,54.14
2022-08-18T11:41:13.772Z,54.03
2022-08-18T11:43:47.599Z,53.34
2022-08-18T11:52:26.262Z,49.96
2022-08-18T11:55:02.375Z,49.82
2022-08-18T11:57:58.565Z,50.08
2022-08-18T12:00:57.326Z,50.48
2022-08-18T12:03:49.575Z,49.53
2022-08-18T12:06:26.582Z,48.81
2022-08-18T12:09:01.866Z,48.91
2022-08-18T12:11:32.396Z,49.36
2022-08-18T12:14:31.322Z,49.06
2022-08-18T12:16:55.417Z,49.55
2022-08-18T12:19:28.078Z,49.93
2022-08-18T12:21:58.401Z,49.52
2022-08-18T12:24:34.233Z,49.71
2022-08-18T12:27:12.247Z,49.57
2022-08-18T12:32:46.833Z,49.66
2022-08-18T12:35:21.916Z,49.51
2022-08-18T12:38:00.011Z,49.39
2022-08-18T12:40:40.123Z,49.89
2022-08-18T12:43:08.283Z,50.43
2022-08-18T12:45:38.134Z,50.72
2022-08-18T12:50:59.826Z,49.85
2022-08-18T12:53:38.191Z,50.01
2022-08-18T12:56:22.377Z,50.77
2022-08-18T12:58:50.968Z,50.70
2022-08-18T13:01:19.131Z,49.67
2022-08-18T13:03:52.671Z,49.63
2022-08-18T13:06:41.207Z,49.37
2022-08-18T13:09:34.298Z,49.15
2022-08-18T13:12:14.744Z,49.76
2022-08-18T13:14:43.390Z,49.73
2022-08-18T13:17:30.133Z,49.71
2022-08-18T13:20:00.420Z,49.84
2022-08-18T13:22:32.100Z,49.21
2022-08-18T13:25:00.463Z,49.34
2022-08-18T13:27:32.788Z,48.57
2022-08-18T13:30:17.061Z,48.33
2022-08-18T13:33:00.563Z,48.16
2022-08-18T13:35:38.221Z,47.67
2022-08-18T13:38:21.220Z,47.76
2022-08-18T13:40:50.769Z,48.14
2022-08-18T13:43:23.573Z,48.04
2022-08-18T13:45:53.502Z,48.43
2022-08-18T13:48:25.771Z,48.77
2022-08-18T13:50:56.276Z,48.64
2022-08-18T13:53:27.595Z,48.84
2022-08-18T13:55:58.145Z,48.79
2022-08-18T13:58:27.007Z,49.03
2022-08-18T14:01:22.812Z,49.26
2022-08-18T14:03:48.155Z,49.03
2022-08-18T14:06:23.014Z,49.57
2022-08-18T14:08:54.704Z,49.32
2022-08-18T14:11:33.014Z,49.56
2022-08-18T14:14:02.842Z,49.54
2022-08-18T14:16:31.590Z,49.49
2022-08-18T14:19:17.874Z,49.66
2022-08-18T14:22:05.765Z,49.68
2022-08-18T14:24:54.414Z,50.07
2022-08-18T14:27:28.381Z,49.87
2022-08-18T14:30:04.854Z,49.96
2022-08-18T14:32:36.130Z,49.89
2022-08-18T14:35:31.778Z,49.98
2022-08-18T14:37:54.633Z,50.08
2022-08-18T14:40:26.375Z,50.07
2022-08-18T14:42:55.489Z,49.85
2022-08-18T14:45:31.347Z,49.80
2022-08-18T14:48:06.695Z,49.75
2022-08-18T14:50:37.045Z,50.06
2022-08-18T14:53:05.334Z,49.71
2022-08-18T14:55:36.039Z,49.83
2022-08-18T14:58:03.982Z,49.59
2022-08-18T15:00:35.512Z,49.79
2022-08-18T15:03:21.525Z,49.94
2022-08-18T15:05:56.525Z,50.23
2022-08-18T15:08:24.860Z,50.01
2022-08-18T15:10:56.439Z,49.86
2022-08-18T15:13:26.480Z,49.75
2022-08-18T15:16:01.914Z,49.13
2022-08-18T15:18:31.403Z,49.21
2022-08-18T15:21:35.315Z,49.00
2022-08-18T15:24:24.101Z,49.30
2022-08-18T15:26:58.203Z,49.36
2022-08-18T15:29:33.396Z,49.33
2022-08-18T15:32:06.158Z,49.63
2022-08-18T15:34:47.153Z,49.24
2022-08-18T15:37:20.400Z,49.66
2022-08-18T15:40:02.565Z,50.20
2022-08-18T15:42:33.184Z,50.35
2022-08-18T15:45:12.075Z,50.83
2022-08-18T15:47:42.076Z,50.86
2022-08-18T15:50:21.801Z,51.37
2022-08-18T15:52:56.126Z,51.35
2022-08-18T15:55:25.692Z,52.01
2022-08-18T15:57:58.139Z,52.63
2022-08-18T16:00:28.308Z,52.73
2022-08-18T16:02:59.911Z,53.36
2022-08-18T16:05:30.422Z,53.75
2022-08-18T16:08:01.135Z,53.68
2022-08-18T16:10:32.743Z,53.72
2022-08-18T16:13:04.454Z,53.78
2022-08-18T16:15:38.171Z,54.23
2022-08-18T16:18:09.104Z,54.52
2022-08-18T16:20:39.109Z,54.82
2022-08-18T16:23:07.616Z,54.57
2022-08-18T16:25:37.992Z,54.40
2022-08-18T16:28:07.900Z,53.87
2022-08-18T16:30:36.587Z,54.20
2022-08-18T16:33:06.578Z,54.63
2022-08-18T16:35:35.565Z,54.80
2022-08-18T16:38:05.530Z,54.75
2022-08-18T16:40:33.748Z,55.13
2022-08-18T16:43:01.656Z,54.97
2022-08-18T16:45:32.072Z,55.49
2022-08-18T16:48:01.347Z,55.53
2022-08-18T16:50:29.773Z,55.46
2022-08-18T16:52:58.736Z,55.57
2022-08-18T16:55:26.632Z,56.17
2022-08-18T16:58:15.446Z,56.47
2022-08-18T17:01:02.943Z,57.17
2022-08-18T17:03:48.392Z,57.67
2022-08-18T17:06:19.728Z,57.97
2022-08-18T17:08:48.335Z,58.13
2022-08-18T17:11:19.857Z,58.41
2022-08-18T17:13:50.101Z,58.44
2022-08-18T17:16:21.160Z,58.69
2022-08-18T17:18:49.322Z,59.00
2022-08-18T17:21:20.115Z,58.90
2022-08-18T17:23:48.707Z,59.18
2022-08-18T17:26:25.404Z,59.83
2022-08-18T17:29:05.655Z,59.67
2022-08-18T17:31:36.440Z,60.03
2022-08-18T17:34:10.049Z,59.71
2022-08-18T17:36:52.495Z,59.87
2022-08-18T17:39:26.440Z,60.19
2022-08-18T17:42:11.708Z,60.30
2022-08-18T17:44:52.142Z,60.40
2022-08-18T17:47:31.219Z,60.42
2022-08-18T17:50:28.022Z,60.97
2022-08-18T17:53:05.471Z,61.21
2022-08-18T17:55:39.245Z,61.49
2022-08-18T17:58:14.434Z,61.40
2022-08-18T18:00:42.735Z,62.24
2022-08-18T18:03:13.427Z,62.38
2022-08-18T18:05:43.934Z,62.57
2022-08-18T18:08:11.845Z,62.82
2022-08-18T18:11:02.187Z,63.11
2022-08-18T18:13:32.986Z,63.57
2022-08-18T18:16:03.865Z,63.91
2022-08-18T18:18:38.637Z,64.13
2022-08-18T18:21:08.913Z,64.43
2022-08-18T18:23:41.200Z,64.81
2022-08-18T18:26:26.141Z,64.37
2022-08-18T18:29:12.635Z,64.14
2022-08-18T18:31:41.863Z,64.73
2022-08-18T18:34:23.566Z,65.70
2022-08-18T18:36:57.397Z,66.11
2022-08-18T18:39:33.179Z,66.35
2022-08-18T18:42:18.041Z,66.86
2022-08-18T18:44:54.029Z,67.24
2022-08-18T18:47:54.449Z,67.38
2022-08-18T18:50:31.128Z,68.14
2022-08-18T18:53:13.992Z,68.24
2022-08-18T18:55:49.058Z,68.37
2022-08-18T18:58:27.455Z,68.75
2022-08-18T19:00:58.525Z,68.77
2022-08-18T19:03:34.281Z,68.69
2022-08-18T19:06:15.465Z,68.86
2022-08-18T19:08:55.202Z,68.76
2022-08-18T19:11:30.290Z,68.81
2022-08-18T19:14:02.714Z,68.70
2022-08-18T19:16:34.918Z,69.12
2022-08-18T19:19:35.828Z,69.08
2022-08-18T19:22:14.117Z,69.13
2022-08-18T19:24:50.781Z,69.40
2022-08-18T19:27:26.324Z,69.44
2022-08-18T19:29:58.896Z,69.66
2022-08-18T19:32:35.463Z,70.17
2022-08-18T19:38:04.246Z,73.14
2022-08-18T19:40:39.638Z,74.42
2022-08-18T19:43:12.807Z,75.16
2022-08-18T19:45:50.832Z,76.50
2022-08-18T19:48:26.661Z,77.59
2022-08-18T19:50:59.634Z,78.59
2022-08-18T19:53:44.450Z,79.69
2022-08-18T19:56:29.108Z,80.82
2022-08-18T19:59:19.594Z,81.72
2022-08-18T20:02:02.581Z,82.27
2022-08-18T20:04:47.565Z,83.53
2022-08-18T20:07:54.850Z,84.56
2022-08-18T20:10:37.610Z,86.33
2022-08-18T20:13:23.369Z,87.69
2022-08-18T20:16:12.088Z,89.24
2022-08-18T20:18:42.763Z,90.49
2022-08-18T20:21:29.903Z,91.76
2022-08-18T20:24:02.294Z,92.69
2022-08-18T20:26:47.714Z,93.10
2022-08-18T20:29:18.240Z,94.08
2022-08-18T20:31:59.779Z,94.81
2022-08-18T20:34:30.098Z,95.29
2022-08-18T20:37:00.610Z,96.13
2022-08-18T20:39:35.948Z,96.63
2022-08-18T20:42:06.721Z,97.18
2022-08-18T20:44:58.714Z,98.00
2022-08-18T20:47:59.252Z,98.44
2022-08-18T20:51:00.016Z,99.14
2022-08-18T20:53:52.485Z,99.53
2022-08-18T20:56:31.379Z,99.89
2022-08-18T20:59:08.534Z,100.00
2022-08-18T21:01:38.682Z,100.00
2022-08-18T21:04:07.151Z,100.00
2022-08-18T21:06:42.093Z,100.00
2022-08-18T21:09:10.480Z,100.00
2022-08-18T21:11:43.038Z,100.00
2022-08-18T21:14:15.099Z,100.00
2022-08-18T21:16:46.007Z,100.00
2022-08-18T21:19:23.578Z,100.00
2022-08-18T21:21:53.407Z,100.00
2022-08-18T21:24:35.755Z,100.00
2022-08-18T21:27:06.649Z,100.00
2022-08-18T21:29:46.942Z,100.00
2022-08-18T21:32:20.273Z,100.00
2022-08-18T21:34:48.677Z,100.00
2022-08-18T21:37:18.346Z,100.00
2022-08-18T21:39:52.461Z,100.00
2022-08-18T21:42:26.125Z,100.00
2022-08-18T21:45:01.123Z,100.00
2022-08-18T21:47:31.668Z,100.00
2022-08-18T21:50:03.485Z,100.00
2022-08-18T21:52:32.314Z,100.00
2022-08-18T21:55:04.333Z,100.00
2022-08-18T21:57:51.997Z,100.00
2022-08-18T22:00:26.901Z,100.00
2022-08-18T22:03:12.584Z,100.00
2022-08-18T22:05:58.287Z,100.00
2022-08-18T22:08:28.311Z,100.00
2022-08-18T22:11:59.871Z,100.00
2022-08-18T22:14:36.193Z,100.00
2022-08-18T22:17:35.158Z,100.00
2022-08-18T22:20:42.233Z,100.00
2022-08-18T22:23:45.957Z,100.00
2022-08-18T22:26:18.844Z,100.00
2022-08-18T22:28:55.016Z,100.00
2022-08-18T22:31:24.026Z,100.00
2022-08-18T22:33:54.250Z,100.00
2022-08-18T22:36:27.623Z,100.00
2022-08-18T22:38:55.993Z,100.00
2022-08-18T22:41:25.354Z,100.00
2022-08-18T22:43:54.862Z,100.00
2022-08-18T22:46:24.769Z,100.00
2022-08-18T22:48:54.342Z,100.00
2022-08-18T22:51:24.815Z,100.00
2022-08-18T22:53:53.227Z,100.00
2022-08-18T22:56:34.630Z,100.00
2022-08-18T22:59:13.606Z,100.00
2022-08-18T23:01:46.263Z,100.00
2022-08-18T23:04:16.931Z,100.00
2022-08-18T23:06:52.251Z,100.00
2022-08-18T23:09:22.190Z,100.00
2022-08-18T23:11:50.848Z,100.00
2022-08-18T23:14:18.963Z,100.00
2022-08-18T23:16:47.287Z,100.00
2022-08-18T23:19:18.987Z,100.00
2022-08-18T23:21:48.493Z,100.00
2022-08-18T23:24:17.888Z,100.00
2022-08-18T23:26:46.154Z,100.00
2022-08-18T23:29:14.779Z,100.00
2022-08-18T23:31:45.296Z,100.00
2022-08-18T23:34:15.359Z,100.00
2022-08-18T23:36:46.247Z,100.00
2022-08-18T23:39:14.664Z,100.00
2022-08-18T23:41:42.738Z,100.00
2022-08-18T23:44:10.693Z,100.00
2022-08-18T23:46:39.514Z,100.00
2022-08-18T23:49:09.232Z,100.00
2022-08-18T23:51:44.249Z,100.00
2022-08-18T23:54:15.204Z,100.00
2022-08-18T23:56:43.058Z,100.00
2022-08-18T23:59:11.580Z,100.00
